Time;durP1;ratioP1;P1;durP2;ratioP2;P2;SDS_P1;SDS_P2;PMS_P1;PMS_P2;Temp;Humidity;BMP_temperature;BMP_pressure;BME280_temperature;BME280_humidity;BME280_pressure;Samples;Min_cycle;Max_cycle;Signal;HPM_P1;HPM_P2
2023/11/29 00:00:53;;;;;;;3.67;2.30;;;15.20;69.70;;;;;;4188475;28;20383;-50
2023/11/29 00:03:36;;;;;;;3.10;2.60;;;15.20;70.00;;;;;;4204522;28;20047;-52
2023/11/29 00:06:17;;;;;;;2.20;2.10;;;15.30;69.50;;;;;;4174211;28;20084;-52
2023/11/29 00:08:58;;;;;;;2.13;2.03;;;15.30;69.40;;;;;;4188334;28;20071;-52
2023/11/29 00:11:39;;;;;;;2.00;1.48;;;15.30;69.50;;;;;;4190464;28;20071;-53
2023/11/29 00:14:19;;;;;;;1.65;1.30;;;15.40;69.30;;;;;;4180420;28;20056;-49
2023/11/29 00:17:01;;;;;;;1.52;1.42;;;15.40;69.10;;;;;;4186375;28;20047;-52
2023/11/29 00:19:49;;;;;;;2.38;1.50;;;15.40;69.00;;;;;;4196153;28;20047;-52
2023/11/29 00:22:30;;;;;;;1.33;1.23;;;15.40;68.70;;;;;;4206106;28;20495;-53
2023/11/29 00:25:12;;;;;;;0.90;0.90;;;15.40;68.10;;;;;;4173029;28;20059;-55
2023/11/29 00:27:53;;;;;;;1.48;1.17;;;15.40;67.20;;;;;;4159029;28;20056;-53
2023/11/29 00:30:34;;;;;;;1.67;1.48;;;15.30;67.20;;;;;;4197915;28;20145;-52
2023/11/29 00:33:15;;;;;;;1.30;1.30;;;15.30;66.80;;;;;;4205131;28;20047;-52
2023/11/29 00:35:57;;;;;;;0.95;0.90;;;15.30;66.40;;;;;;4189256;28;20064;-52
2023/11/29 00:38:38;;;;;;;1.15;1.15;;;15.40;66.30;;;;;;4189493;28;20513;-53
2023/11/29 00:41:19;;;;;;;1.30;1.20;;;15.40;66.50;;;;;;4188085;28;20121;-52
2023/11/29 00:44:00;;;;;;;1.10;1.10;;;15.40;66.80;;;;;;4186765;28;20051;-53
2023/11/29 00:46:41;;;;;;;1.63;1.52;;;15.50;66.80;;;;;;4187428;28;20498;-49
2023/11/29 00:49:23;;;;;;;1.20;1.20;;;15.60;66.10;;;;;;4178285;28;20125;-53
2023/11/29 00:52:05;;;;;;;1.10;1.10;;;15.70;66.80;;;;;;4204057;28;20121;-53
2023/11/29 00:54:46;;;;;;;1.23;1.23;;;15.70;65.90;;;;;;4176975;28;20044;-52
2023/11/29 00:57:28;;;;;;;1.33;1.33;;;15.70;65.80;;;;;;4175613;28;20094;-53
2023/11/29 01:00:10;;;;;;;1.05;0.98;;;15.70;66.30;;;;;;4187672;28;20071;-53
2023/11/29 01:02:51;;;;;;;1.15;1.10;;;15.80;66.00;;;;;;4186875;28;20063;-54
2023/11/29 01:05:32;;;;;;;0.82;0.82;;;15.80;67.00;;;;;;4184915;28;20063;-53
2023/11/29 01:08:14;;;;;;;1.00;1.00;;;15.80;65.90;;;;;;4187372;28;20515;-50
2023/11/29 01:10:55;;;;;;;0.90;0.90;;;15.80;66.10;;;;;;4172109;28;20052;-51
2023/11/29 01:13:36;;;;;;;0.90;0.90;;;15.80;66.20;;;;;;4176283;28;20516;-54
2023/11/29 01:16:17;;;;;;;0.93;0.93;;;15.80;66.40;;;;;;4187770;28;20499;-49
2023/11/29 01:18:59;;;;;;;1.85;1.15;;;15.80;66.40;;;;;;4188500;28;20051;-54
2023/11/29 01:21:40;;;;;;;0.80;0.80;;;15.80;65.90;;;;;;4193996;28;20180;-50
2023/11/29 01:24:24;;;;;;;0.75;0.75;;;15.80;66.20;;;;;;4187179;28;20399;-54
2023/11/29 01:27:05;;;;;;;1.23;1.00;;;15.80;66.40;;;;;;4188762;28;20060;-49
2023/11/29 01:29:46;;;;;;;0.73;0.73;;;15.80;65.40;;;;;;4183218;28;20054;-49
2023/11/29 01:32:27;;;;;;;0.75;0.73;;;15.90;65.80;;;;;;4189220;28;20071;-49
2023/11/29 01:35:08;;;;;;;1.23;0.90;;;15.90;65.60;;;;;;4173016;28;20060;-50
2023/11/29 01:37:49;;;;;;;1.65;1.10;;;15.90;65.30;;;;;;4171480;28;20109;-48
2023/11/29 01:40:31;;;;;;;1.63;1.10;;;16.00;65.50;;;;;;4199572;28;20055;-50
2023/11/29 01:43:12;;;;;;;1.25;0.95;;;16.00;65.20;;;;;;4195208;28;20624;-52
2023/11/29 01:45:54;;;;;;;0.47;0.47;;;16.00;65.20;;;;;;4188126;28;20059;-51
2023/11/29 01:48:35;;;;;;;0.43;0.43;;;16.10;64.50;;;;;;4188114;28;20518;-51
2023/11/29 01:51:17;;;;;;;0.47;0.47;;;16.10;65.30;;;;;;4159421;28;20179;-52
2023/11/29 01:54:00;;;;;;;0.45;0.45;;;16.10;64.70;;;;;;4186229;28;20059;-50
2023/11/29 01:56:43;;;;;;;0.55;0.55;;;16.10;65.20;;;;;;4185991;28;20046;-58
2023/11/29 01:59:24;;;;;;;0.80;0.80;;;16.00;65.30;;;;;;4194416;28;20043;-52
2023/11/29 02:02:06;;;;;;;0.90;0.90;;;16.00;65.30;;;;;;4201436;28;20055;-53
2023/11/29 02:04:47;;;;;;;0.75;0.75;;;16.00;65.30;;;;;;4172220;28;20052;-51
2023/11/29 02:07:29;;;;;;;;;;;16.00;65.40;;;;;;4179019;28;20149;-52
2023/11/29 02:10:10;;;;;;;1.43;0.80;;;15.90;65.60;;;;;;4196156;28;20334;-51
2023/11/29 02:12:52;;;;;;;1.20;1.20;;;15.80;66.30;;;;;;4188131;28;20514;-52
2023/11/29 02:15:34;;;;;;;1.00;1.00;;;15.80;65.90;;;;;;4187896;28;20532;-54
2023/11/29 02:18:15;;;;;;;1.77;1.58;;;15.70;66.40;;;;;;4185884;28;20056;-51
2023/11/29 02:20:56;;;;;;;1.35;0.90;;;15.60;66.90;;;;;;4192983;28;20059;-52
2023/11/29 02:23:43;;;;;;;1.00;0.90;;;15.50;66.80;;;;;;4172924;28;20191;-47
2023/11/29 02:26:26;;;;;;;0.90;0.90;;;15.50;67.40;;;;;;4175070;28;20060;-47
2023/11/29 02:29:07;;;;;;;1.30;1.20;;;15.50;66.40;;;;;;4200146;28;20189;-45
2023/11/29 02:31:48;;;;;;;0.85;0.85;;;15.50;66.50;;;;;;4188736;28;20060;-49
2023/11/29 02:34:29;;;;;;;1.60;1.33;;;15.50;66.50;;;;;;4186572;28;20097;-46
2023/11/29 02:37:10;;;;;;;1.23;1.20;;;15.60;65.80;;;;;;4172475;28;20384;-46
2023/11/29 02:39:51;;;;;;;1.52;1.10;;;15.60;65.80;;;;;;4160235;28;20052;-47
2023/11/29 02:42:33;;;;;;;0.95;0.82;;;15.70;66.70;;;;;;4167696;28;20075;-49
2023/11/29 02:45:14;;;;;;;1.40;1.30;;;15.70;65.60;;;;;;4186756;28;20191;-47
2023/11/29 02:47:55;;;;;;;1.23;1.23;;;15.80;66.10;;;;;;4196443;28;20145;-49
2023/11/29 02:50:36;;;;;;;1.08;1.08;;;15.80;65.90;;;;;;4197723;28;20191;-50
2023/11/29 02:53:17;;;;;;;1.00;1.00;;;15.80;65.60;;;;;;4169792;28;20542;-51
2023/11/29 02:55:58;;;;;;;1.50;1.40;;;15.90;64.60;;;;;;4173993;28;20060;-50
2023/11/29 02:58:40;;;;;;;1.53;1.40;;;15.80;65.90;;;;;;4212975;28;20062;-53
2023/11/29 03:01:21;;;;;;;1.60;1.48;;;15.80;64.70;;;;;;4194022;28;20376;-50
2023/11/29 03:04:02;;;;;;;1.52;1.52;;;15.80;65.20;;;;;;4170730;28;20088;-52
2023/11/29 03:06:43;;;;;;;1.88;1.77;;;15.80;64.80;;;;;;4184068;28;20432;-53
2023/11/29 03:09:24;;;;;;;1.92;1.80;;;15.70;65.40;;;;;;4202811;28;20506;-54
2023/11/29 03:12:08;;;;;;;2.92;1.55;;;15.70;65.50;;;;;;4174533;28;20052;-51
2023/11/29 03:14:51;;;;;;;1.83;1.73;;;15.60;65.40;;;;;;4186788;28;20410;-50
2023/11/29 03:17:32;;;;;;;1.60;1.50;;;15.60;65.70;;;;;;4189771;28;20407;-51
2023/11/29 03:20:13;;;;;;;1.33;1.33;;;15.50;65.70;;;;;;4184444;28;20052;-48
2023/11/29 03:22:54;;;;;;;1.30;1.20;;;15.60;66.30;;;;;;4186092;28;20171;-50
2023/11/29 03:25:35;;;;;;;1.98;1.30;;;15.50;66.80;;;;;;4186225;28;20454;-47
2023/11/29 03:28:16;;;;;;;1.42;1.33;;;15.60;67.90;;;;;;4185574;28;20067;-47
2023/11/29 03:30:58;;;;;;;1.13;1.13;;;15.70;66.80;;;;;;4189039;28;20546;-49
2023/11/29 03:33:39;;;;;;;1.00;1.00;;;15.80;66.80;;;;;;4173031;28;20182;-47
2023/11/29 03:36:20;;;;;;;1.55;1.33;;;15.90;66.30;;;;;;4167265;28;20043;-48
2023/11/29 03:39:00;;;;;;;0.95;0.90;;;16.00;65.80;;;;;;4206677;28;20117;-45
2023/11/29 03:41:41;;;;;;;1.42;0.80;;;16.00;65.90;;;;;;4188919;28;20155;-54
2023/11/29 03:44:23;;;;;;;1.08;0.98;;;16.10;65.80;;;;;;4168448;28;20055;-49
2023/11/29 03:47:06;;;;;;;1.08;0.95;;;16.10;65.20;;;;;;4195319;28;20063;-49
2023/11/29 03:49:46;;;;;;;1.40;0.70;;;16.10;65.10;;;;;;4206372;28;20073;-49
2023/11/29 03:52:28;;;;;;;0.60;0.60;;;16.10;65.10;;;;;;4186786;28;20056;-48
2023/11/29 03:55:09;;;;;;;0.88;0.65;;;16.00;65.20;;;;;;4173374;28;20102;-47
2023/11/29 03:57:50;;;;;;;;;;;16.00;65.30;;;;;;4202478;28;20188;-46
2023/11/29 04:00:31;;;;;;;2.15;0.95;;;15.90;65.80;;;;;;4197714;28;20268;-46
2023/11/29 04:03:14;;;;;;;0.90;0.90;;;15.90;65.50;;;;;;4174787;28;20127;-50
2023/11/29 04:05:55;;;;;;;0.60;0.60;;;15.90;65.90;;;;;;4190622;28;20399;-48
2023/11/29 04:08:36;;;;;;;0.60;0.60;;;15.90;65.40;;;;;;4161393;28;20099;-45
2023/11/29 04:11:17;;;;;;;1.23;0.90;;;16.00;65.70;;;;;;4167478;28;20186;-49
2023/11/29 04:13:58;;;;;;;0.77;0.70;;;16.00;65.30;;;;;;4172828;28;20407;-47
2023/11/29 04:16:39;;;;;;;0.77;0.77;;;16.10;66.30;;;;;;4160257;28;20048;-46
2023/11/29 04:19:21;;;;;;;0.75;0.75;;;16.10;65.10;;;;;;4188540;28;20066;-46
2023/11/29 04:22:02;;;;;;;0.75;0.70;;;16.20;64.70;;;;;;4187968;28;20055;-47
2023/11/29 04:24:43;;;;;;;0.90;0.80;;;16.20;64.40;;;;;;4194825;28;20174;-50
2023/11/29 04:27:24;;;;;;;0.70;0.70;;;16.20;65.00;;;;;;4201487;28;20063;-50
2023/11/29 04:30:07;;;;;;;1.42;1.20;;;16.20;65.10;;;;;;4171197;28;20413;-48
2023/11/29 04:32:48;;;;;;;0.65;0.60;;;16.30;65.00;;;;;;4165513;28;20067;-48
2023/11/29 04:35:30;;;;;;;0.68;0.68;;;16.20;66.10;;;;;;4184228;28;20348;-48
2023/11/29 04:38:15;;;;;;;0.70;0.70;;;16.20;65.50;;;;;;4187242;28;20075;-49
2023/11/29 04:40:56;;;;;;;0.50;0.50;;;16.20;65.60;;;;;;4185435;28;20056;-46
2023/11/29 04:43:37;;;;;;;0.90;0.90;;;16.20;65.40;;;;;;4188123;28;20052;-49
2023/11/29 04:46:18;;;;;;;0.60;0.60;;;16.20;65.30;;;;;;4186669;28;20078;-46
2023/11/29 04:48:59;;;;;;;0.70;0.70;;;16.20;65.30;;;;;;4166132;28;20382;-48
2023/11/29 04:51:42;;;;;;;0.70;0.70;;;16.20;65.50;;;;;;4170701;28;20051;-46
2023/11/29 04:54:23;;;;;;;0.70;0.70;;;16.10;65.30;;;;;;4172718;28;20052;-50
2023/11/29 04:57:04;;;;;;;0.77;0.77;;;16.10;65.50;;;;;;4172561;28;20067;-49
2023/11/29 04:59:45;;;;;;;0.82;0.82;;;16.00;65.80;;;;;;4188197;28;20056;-49
2023/11/29 05:02:26;;;;;;;1.25;1.25;;;16.00;66.20;;;;;;4201019;28;20104;-51
2023/11/29 05:05:08;;;;;;;0.82;0.82;;;16.00;66.10;;;;;;4195126;28;20067;-47
2023/11/29 05:07:51;;;;;;;1.23;1.13;;;16.10;66.20;;;;;;4183277;28;20063;-50
2023/11/29 05:10:32;;;;;;;1.67;1.25;;;16.10;66.10;;;;;;4188648;28;20051;-50
2023/11/29 05:13:13;;;;;;;1.50;1.40;;;16.10;66.20;;;;;;4195542;28;20050;-49
2023/11/29 05:15:54;;;;;;;1.30;1.30;;;16.10;65.90;;;;;;4184258;28;20051;-50
2023/11/29 05:18:35;;;;;;;0.90;0.90;;;16.20;65.80;;;;;;4179128;28;20179;-47
2023/11/29 05:21:17;;;;;;;1.02;1.00;;;16.20;65.80;;;;;;4173289;28;20182;-46
2023/11/29 05:23:59;;;;;;;1.50;1.38;;;16.20;65.80;;;;;;4175724;28;20416;-49
2023/11/29 05:26:40;;;;;;;1.20;1.10;;;16.20;66.70;;;;;;4187283;28;20514;-46
2023/11/29 05:29:21;;;;;;;1.40;1.33;;;16.20;65.70;;;;;;4172762;28;20096;-49
2023/11/29 05:32:02;;;;;;;2.40;1.20;;;16.20;65.70;;;;;;4188273;28;20063;-48
2023/11/29 05:34:45;;;;;;;2.08;1.30;;;16.20;66.10;;;;;;4187914;28;20070;-45
2023/11/29 05:37:26;;;;;;;1.58;1.42;;;16.20;66.20;;;;;;4166710;28;20105;-46
2023/11/29 05:40:10;;;;;;;1.20;1.20;;;16.10;66.40;;;;;;4171774;28;20183;-46
2023/11/29 05:42:52;;;;;;;1.48;1.20;;;16.00;66.80;;;;;;4170606;28;20056;-47
2023/11/29 05:45:33;;;;;;;;;;;15.90;67.20;;;;;;4188045;28;20055;-45
2023/11/29 05:48:16;;;;;;;1.98;1.50;;;16.00;67.80;;;;;;4175865;28;19985;-46
2023/11/29 05:50:57;;;;;;;1.73;1.63;;;16.00;67.90;;;;;;4174558;28;20182;-45
2023/11/29 05:53:38;;;;;;;1.58;1.48;;;16.00;67.30;;;;;;4187353;28;20614;-46
2023/11/29 05:56:23;;;;;;;1.63;1.30;;;16.10;67.00;;;;;;4198333;28;20047;-49
2023/11/29 05:59:05;;;;;;;3.78;1.30;;;16.20;67.00;;;;;;4204412;28;20466;-46
2023/11/29 06:01:47;;;;;;;3.53;1.40;;;16.10;66.90;;;;;;4204193;28;20160;-51
2023/11/29 06:04:28;;;;;;;;;;;16.20;66.80;;;;;;4195230;28;20460;-48
2023/11/29 06:07:08;;;;;;;1.70;1.20;;;16.20;66.80;;;;;;4191690;28;19973;-51
2023/11/29 06:09:49;;;;;;;1.00;1.00;;;16.20;67.10;;;;;;4185595;28;20090;-47
2023/11/29 06:12:33;;;;;;;1.15;1.02;;;16.10;67.10;;;;;;4173425;28;20515;-50
2023/11/29 06:15:15;;;;;;;2.10;0.90;;;16.10;67.10;;;;;;4186248;28;21025;-49
2023/11/29 06:17:56;;;;;;;0.85;0.63;;;16.10;67.10;;;;;;4174783;28;20195;-46
2023/11/29 06:20:38;;;;;;;0.68;0.55;;;16.00;66.80;;;;;;4169812;28;20068;-48
2023/11/29 06:23:18;;;;;;;1.00;1.00;;;16.00;66.80;;;;;;4179846;28;20053;-47
2023/11/29 06:26:00;;;;;;;1.08;1.00;;;15.90;63.80;;;;;;4172564;28;20121;-48
2023/11/29 06:28:42;;;;;;;1.52;1.42;;;15.80;63.20;;;;;;4184770;28;20097;-50
2023/11/29 06:31:23;;;;;;;1.65;1.30;;;15.70;63.20;;;;;;4175384;28;20052;-48
2023/11/29 06:34:05;;;;;;;1.92;1.70;;;15.70;61.50;;;;;;4180484;28;20075;-48
2023/11/29 06:36:47;;;;;;;2.15;1.98;;;15.70;60.70;;;;;;4187366;28;20055;-50
2023/11/29 06:39:28;;;;;;;3.25;2.10;;;15.70;60.90;;;;;;4187573;28;20071;-45
2023/11/29 06:42:09;;;;;;;7.88;2.60;;;15.70;60.70;;;;;;4185426;28;20056;-46
2023/11/29 06:44:52;;;;;;;2.65;2.45;;;15.70;59.90;;;;;;4160703;28;20048;-47
2023/11/29 06:47:33;;;;;;;4.22;2.97;;;15.60;59.60;;;;;;4170577;28;20048;-48
2023/11/29 06:50:14;;;;;;;3.42;2.97;;;15.60;60.50;;;;;;4171138;28;20060;-45
2023/11/29 06:52:56;;;;;;;3.33;2.55;;;15.60;61.00;;;;;;4170594;28;20048;-46
2023/11/29 06:55:37;;;;;;;5.43;2.55;;;15.60;59.10;;;;;;4190101;28;20046;-50
2023/11/29 06:58:20;;;;;;;3.40;3.05;;;15.60;60.00;;;;;;4203100;28;20486;-46
2023/11/29 07:01:06;;;;;;;4.68;2.65;;;15.60;59.80;;;;;;4184501;28;20186;-45
2023/11/29 07:03:48;;;;;;;3.90;3.13;;;15.60;59.60;;;;;;4177025;28;20671;-48
2023/11/29 07:06:29;;;;;;;3.80;2.50;;;15.50;60.40;;;;;;4189059;28;20391;-45
2023/11/29 07:09:13;;;;;;;4.43;2.45;;;15.60;59.10;;;;;;4167352;28;20187;-47
2023/11/29 07:11:55;;;;;;;2.55;2.30;;;15.60;59.30;;;;;;4186935;28;20055;-52
2023/11/29 07:14:36;;;;;;;;;;;15.60;58.40;;;;;;4191021;28;20055;-50
2023/11/29 07:17:18;;;;;;;2.67;2.38;;;15.60;58.20;;;;;;4190590;28;19965;-50
2023/11/29 07:20:00;;;;;;;2.90;2.70;;;15.50;57.70;;;;;;4189300;28;20190;-49
2023/11/29 07:22:41;;;;;;;3.00;2.42;;;15.50;57.60;;;;;;4190219;28;20450;-49
2023/11/29 07:25:23;;;;;;;2.95;2.30;;;15.50;57.70;;;;;;4190555;28;20060;-51
2023/11/29 07:28:04;;;;;;;3.65;2.45;;;15.50;56.20;;;;;;4189839;28;20156;-48
2023/11/29 07:30:45;;;;;;;3.60;2.20;;;15.40;56.70;;;;;;4187519;28;20059;-48
2023/11/29 07:33:28;;;;;;;2.55;2.20;;;15.30;55.50;;;;;;4183364;28;20051;-51
2023/11/29 07:36:12;;;;;;;3.70;2.90;;;15.30;56.00;;;;;;4188750;28;20051;-52
2023/11/29 07:38:54;;;;;;;4.15;2.30;;;15.10;56.50;;;;;;4206741;28;20268;-48
2023/11/29 07:41:35;;;;;;;2.47;2.00;;;15.10;57.70;;;;;;4160107;28;20607;-50
2023/11/29 07:44:16;;;;;;;2.22;2.00;;;15.10;57.50;;;;;;4165598;28;20121;-45
2023/11/29 07:46:57;;;;;;;2.03;1.75;;;15.10;57.30;;;;;;4201972;28;20435;-49
2023/11/29 07:49:40;;;;;;;1.90;1.80;;;15.00;57.60;;;;;;4199553;28;20101;-46
2023/11/29 07:52:20;;;;;;;1.92;1.60;;;15.00;57.20;;;;;;4196352;28;20871;-47
2023/11/29 07:55:02;;;;;;;3.80;1.53;;;14.90;57.90;;;;;;4189617;28;20590;-47
2023/11/29 07:57:43;;;;;;;2.65;1.67;;;14.80;57.60;;;;;;4192708;28;20314;-53
2023/11/29 08:00:24;;;;;;;2.55;1.50;;;14.70;57.80;;;;;;4187277;28;20376;-53
2023/11/29 08:03:05;;;;;;;1.63;1.23;;;14.60;57.30;;;;;;4189516;28;20067;-50
2023/11/29 08:05:48;;;;;;;2.35;1.50;;;14.70;57.10;;;;;;4187874;28;20129;-50
2023/11/29 08:08:29;;;;;;;2.75;1.55;;;14.70;56.90;;;;;;4174229;28;20055;-49
2023/11/29 08:11:10;;;;;;;1.50;1.48;;;14.80;57.30;;;;;;4172456;28;20507;-50
2023/11/29 08:13:51;;;;;;;2.25;1.20;;;14.90;56.40;;;;;;4172503;28;20056;-48
2023/11/29 08:16:33;;;;;;;2.63;1.50;;;15.10;55.80;;;;;;4171999;28;20507;-46
2023/11/29 08:19:14;;;;;;;3.42;1.45;;;15.10;55.80;;;;;;4172504;28;20060;-48
2023/11/29 08:21:56;;;;;;;1.55;1.42;;;15.20;55.80;;;;;;4170025;28;20082;-49
2023/11/29 08:24:37;;;;;;;1.92;1.50;;;15.20;55.90;;;;;;4184907;28;20059;-51
2023/11/29 08:27:20;;;;;;;1.40;1.30;;;15.20;56.30;;;;;;4187158;28;20066;-55
2023/11/29 08:30:01;;;;;;;2.75;1.50;;;15.30;56.80;;;;;;4185623;28;20086;-49
2023/11/29 08:32:42;;;;;;;2.10;1.40;;;15.40;55.50;;;;;;4188226;28;20643;-48
2023/11/29 08:35:23;;;;;;;2.47;1.73;;;15.40;55.10;;;;;;4188822;28;20062;-50
2023/11/29 08:38:05;;;;;;;4.30;1.67;;;15.40;56.00;;;;;;4188521;28;20213;-51
2023/11/29 08:40:46;;;;;;;1.90;1.55;;;15.30;56.50;;;;;;4183649;28;20098;-53
2023/11/29 08:43:27;;;;;;;2.08;1.30;;;15.20;57.20;;;;;;4189139;28;20051;-53
2023/11/29 08:46:08;;;;;;;1.45;1.17;;;15.10;57.00;;;;;;4174730;28;20060;-48
2023/11/29 08:48:49;;;;;;;4.30;1.90;;;15.20;56.60;;;;;;4164464;28;20553;-47
2023/11/29 08:51:31;;;;;;;1.20;1.10;;;15.20;56.70;;;;;;4162512;28;20068;-49
2023/11/29 08:54:14;;;;;;;5.78;1.65;;;15.30;56.80;;;;;;4171797;28;20060;-47
2023/11/29 08:56:55;;;;;;;2.28;1.40;;;15.30;57.70;;;;;;4155345;28;20052;-51
2023/11/29 08:59:37;;;;;;;3.08;1.55;;;15.30;57.90;;;;;;4169717;28;20401;-48
2023/11/29 09:02:18;;;;;;;;;;;15.40;58.30;;;;;;4184989;28;20105;-50
2023/11/29 09:05:03;;;;;;;1.80;1.10;;;15.40;58.20;;;;;;4187490;28;19928;-49
2023/11/29 09:07:44;;;;;;;2.05;1.30;;;15.50;59.20;;;;;;4181992;28;20101;-48
2023/11/29 09:10:26;;;;;;;3.58;1.15;;;15.50;58.00;;;;;;4185064;28;20229;-50
2023/11/29 09:13:07;;;;;;;1.98;1.42;;;15.60;58.00;;;;;;4180786;28;20105;-47
2023/11/29 09:15:48;;;;;;;1.50;1.27;;;15.60;57.90;;;;;;4187222;28;20059;-49
2023/11/29 09:18:29;;;;;;;2.47;1.02;;;15.60;58.00;;;;;;4188158;28;20046;-51
2023/11/29 09:21:10;;;;;;;1.95;1.42;;;15.60;56.20;;;;;;4176432;28;20067;-48
2023/11/29 09:23:53;;;;;;;1.73;1.10;;;15.60;57.80;;;;;;4174119;28;20056;-48
2023/11/29 09:26:35;;;;;;;2.35;1.40;;;15.60;57.70;;;;;;4171838;28;20060;-47
2023/11/29 09:29:16;;;;;;;1.92;1.23;;;15.50;57.80;;;;;;4170594;28;20495;-48
2023/11/29 09:31:57;;;;;;;3.63;1.75;;;15.50;59.10;;;;;;4178895;28;20564;-47
2023/11/29 09:34:38;;;;;;;5.35;1.33;;;15.50;58.10;;;;;;4186567;28;20387;-47
2023/11/29 09:37:19;;;;;;;1.10;0.98;;;15.50;59.20;;;;;;4183848;28;20052;-48
2023/11/29 09:40:01;;;;;;;0.90;0.90;;;15.50;58.00;;;;;;4184823;28;20086;-49
2023/11/29 09:42:44;;;;;;;1.25;0.90;;;15.40;58.70;;;;;;4171493;28;20059;-52
2023/11/29 09:45:26;;;;;;;1.92;1.10;;;15.40;59.20;;;;;;4173427;28;20158;-47
2023/11/29 09:48:07;;;;;;;2.13;1.35;;;15.30;59.60;;;;;;4178499;28;20056;-47
2023/11/29 09:50:49;;;;;;;3.03;1.20;;;15.30;59.20;;;;;;4162824;28;20170;-47
2023/11/29 09:53:30;;;;;;;2.13;1.17;;;15.40;60.90;;;;;;4170008;28;20056;-49
2023/11/29 09:56:12;;;;;;;1.25;0.95;;;15.40;60.60;;;;;;4155486;28;20179;-53
2023/11/29 09:58:55;;;;;;;2.17;1.17;;;15.50;60.80;;;;;;4154250;28;20052;-49
2023/11/29 10:01:36;;;;;;;3.35;1.23;;;15.50;60.40;;;;;;4184244;28;20178;-52
2023/11/29 10:04:17;;;;;;;4.22;0.90;;;15.50;60.30;;;;;;4187599;28;20491;-50
2023/11/29 10:07:01;;;;;;;1.30;1.20;;;15.40;58.60;;;;;;4186043;28;20091;-50
2023/11/29 10:09:41;;;;;;;2.15;1.00;;;15.30;58.80;;;;;;4184650;28;20059;-52
2023/11/29 10:12:23;;;;;;;2.75;1.10;;;15.30;60.60;;;;;;4188475;28;20058;-53
2023/11/29 10:15:06;;;;;;;1.27;0.80;;;15.20;61.10;;;;;;4204533;28;20055;-55
2023/11/29 10:17:51;;;;;;;2.60;1.13;;;15.10;61.30;;;;;;4178965;28;20060;-52
2023/11/29 10:20:32;;;;;;;1.55;1.00;;;15.00;60.80;;;;;;4187479;28;20047;-49
2023/11/29 10:23:14;;;;;;;6.30;1.23;;;15.00;59.50;;;;;;4185704;28;20052;-49
2023/11/29 10:25:58;;;;;;;1.00;0.98;;;15.10;59.60;;;;;;4159138;28;20060;-51
2023/11/29 10:28:40;;;;;;;1.02;0.90;;;15.10;59.60;;;;;;4182876;28;20499;-49
2023/11/29 10:31:23;;;;;;;2.50;1.00;;;15.20;61.90;;;;;;4186641;28;20209;-49
2023/11/29 10:34:04;;;;;;;1.05;0.95;;;15.40;60.30;;;;;;4184003;28;20048;-48
2023/11/29 10:36:45;;;;;;;;;;;15.50;59.60;;;;;;4187449;28;20052;-50
2023/11/29 10:39:31;;;;;;;1.42;0.75;;;15.50;57.90;;;;;;4186605;28;20054;-46
2023/11/29 10:42:12;;;;;;;1.02;1.02;;;15.50;59.20;;;;;;4170367;28;20056;-45
2023/11/29 10:44:53;;;;;;;;;;;15.50;59.90;;;;;;4176918;28;20102;-46
2023/11/29 10:47:42;;;;;;;3.53;0.80;;;15.50;59.90;;;;;;4183308;28;19988;-47
2023/11/29 10:50:25;;;;;;;2.30;1.23;;;15.50;61.30;;;;;;4185675;28;20205;-47
2023/11/29 10:53:06;;;;;;;1.67;1.00;;;15.50;61.20;;;;;;4187125;28;20071;-58
2023/11/29 10:55:48;;;;;;;1.23;0.85;;;15.50;60.30;;;;;;4186627;28;20189;-50
2023/11/29 10:58:35;;;;;;;1.85;0.82;;;15.50;58.70;;;;;;4176911;28;20486;-53
2023/11/29 11:01:16;;;;;;;3.63;1.20;;;15.60;60.30;;;;;;4186359;28;20407;-50
2023/11/29 11:03:59;;;;;;;3.67;1.13;;;15.60;58.50;;;;;;4187177;28;20429;-52
2023/11/29 11:06:41;;;;;;;0.77;0.73;;;15.70;60.30;;;;;;4185263;28;20683;-47
2023/11/29 11:09:36;;;;;;;4.75;2.00;;;15.70;60.20;;;;;;4187045;28;20059;-46
2023/11/29 11:12:33;;;;;;;1.75;0.93;;;15.70;59.70;;;;;;4186496;28;20523;-50
2023/11/29 11:15:16;;;;;;;1.13;1.00;;;15.70;59.50;;;;;;4171518;28;20059;-47
2023/11/29 11:18:24;;;;;;;2.97;0.95;;;15.70;58.80;;;;;;4178213;28;20503;-46
2023/11/29 11:21:21;;;;;;;0.95;0.80;;;15.60;57.50;;;;;;4184280;28;20051;-48
2023/11/29 11:24:02;;;;;;;2.45;1.00;;;15.50;58.40;;;;;;4167921;28;20184;-45
2023/11/29 11:27:07;;;;;;;0.88;0.70;;;15.50;59.20;;;;;;4186702;28;20395;-49
2023/11/29 11:29:48;;;;;;;1.02;1.00;;;15.40;59.00;;;;;;4185764;28;20407;-48
2023/11/29 11:32:47;;;;;;;2.88;1.95;;;15.40;59.50;;;;;;4157724;28;20519;-49
2023/11/29 11:35:36;;;;;;;1.35;1.25;;;15.30;59.10;;;;;;4169622;28;20077;-49
2023/11/29 11:38:19;;;;;;;4.05;1.05;;;15.30;60.30;;;;;;4169636;28;20495;-48
2023/11/29 11:41:00;;;;;;;3.75;0.98;;;15.30;60.70;;;;;;4170057;28;20510;-48
2023/11/29 11:43:41;;;;;;;1.42;1.08;;;15.30;60.90;;;;;;4182719;28;20133;-46
2023/11/29 11:46:22;;;;;;;1.42;0.85;;;15.30;60.10;;;;;;4171946;28;20807;-46
2023/11/29 11:49:04;;;;;;;1.65;1.13;;;15.30;61.60;;;;;;4186485;28;20588;-50
2023/11/29 11:51:46;;;;;;;2.10;1.02;;;15.30;60.90;;;;;;4177803;28;20106;-47
2023/11/29 11:54:29;;;;;;;1.00;0.90;;;15.30;61.60;;;;;;4193529;28;20054;-48
2023/11/29 11:57:10;;;;;;;1.45;1.08;;;15.30;61.10;;;;;;4197617;28;20538;-51
2023/11/29 11:59:52;;;;;;;0.85;0.82;;;15.30;61.60;;;;;;4186528;28;20056;-48
2023/11/29 12:02:34;;;;;;;0.80;0.80;;;15.30;61.60;;;;;;4189352;28;20058;-48
2023/11/29 12:05:15;;;;;;;2.53;1.20;;;15.30;61.40;;;;;;4184529;28;20498;-47
2023/11/29 12:07:57;;;;;;;1.95;1.13;;;15.30;61.70;;;;;;4161073;28;20078;-49
2023/11/29 12:10:40;;;;;;;2.35;1.83;;;15.30;62.10;;;;;;4172174;28;20060;-47
2023/11/29 12:13:22;;;;;;;6.00;1.88;;;15.40;62.80;;;;;;4172592;28;20090;-52
2023/11/29 12:16:13;;;;;;;1.40;1.30;;;15.40;65.00;;;;;;4184382;28;20175;-44
2023/11/29 12:18:54;;;;;;;1.70;1.27;;;15.40;65.60;;;;;;4172730;28;20606;-47
2023/11/29 12:21:35;;;;;;;3.15;1.13;;;15.40;64.90;;;;;;4188887;28;20052;-45
2023/11/29 12:24:16;;;;;;;0.80;0.80;;;15.40;65.60;;;;;;4188496;28;20055;-45
2023/11/29 12:27:08;;;;;;;1.15;1.05;;;15.40;64.60;;;;;;4174257;28;20110;-44
2023/11/29 12:29:49;;;;;;;2.25;0.82;;;15.30;63.60;;;;;;4155184;28;20043;-45
2023/11/29 12:32:30;;;;;;;0.98;0.98;;;15.30;63.90;;;;;;4183935;28;20356;-44
2023/11/29 12:35:15;;;;;;;1.95;0.98;;;15.30;63.50;;;;;;4181684;28;20411;-46
2023/11/29 12:37:56;;;;;;;2.17;0.70;;;15.30;64.70;;;;;;4187820;28;20067;-46
2023/11/29 12:40:37;;;;;;;1.48;1.17;;;15.30;64.10;;;;;;4171132;28;20056;-46
2023/11/29 12:43:19;;;;;;;0.90;0.90;;;15.30;64.00;;;;;;4154934;28;20061;-48
2023/11/29 12:46:01;;;;;;;0.80;0.80;;;15.30;63.70;;;;;;4174124;28;20044;-46
2023/11/29 12:48:41;;;;;;;1.25;1.10;;;15.20;63.90;;;;;;4189045;28;20047;-46
2023/11/29 12:51:23;;;;;;;0.75;0.70;;;15.10;63.80;;;;;;4184704;28;20051;-44
2023/11/29 12:54:04;;;;;;;1.90;1.00;;;15.00;64.10;;;;;;4188234;28;20187;-48
2023/11/29 12:56:49;;;;;;;1.10;0.80;;;15.00;64.70;;;;;;4188204;28;20182;-49
2023/11/29 12:59:31;;;;;;;1.30;1.00;;;14.90;63.10;;;;;;4188840;28;20059;-48
2023/11/29 13:02:12;;;;;;;0.90;0.90;;;14.90;63.70;;;;;;4188614;28;20059;-44
2023/11/29 13:04:53;;;;;;;4.30;1.80;;;14.90;65.00;;;;;;4171854;28;20179;-46
2023/11/29 13:07:34;;;;;;;1.67;1.08;;;14.90;65.40;;;;;;4184231;28;20588;-44
2023/11/29 13:10:16;;;;;;;3.25;1.00;;;14.90;65.90;;;;;;4188028;28;20055;-45
2023/11/29 13:12:57;;;;;;;1.77;0.90;;;15.00;66.10;;;;;;4188726;28;20047;-44
2023/11/29 13:15:39;;;;;;;;;;;15.10;65.40;;;;;;4188809;28;20055;-49
2023/11/29 13:18:20;;;;;;;2.30;2.05;;;15.20;65.10;;;;;;4157782;28;19932;-48
2023/11/29 13:21:02;;;;;;;2.47;2.38;;;15.20;66.00;;;;;;4172070;28;20048;-45
2023/11/29 13:23:44;;;;;;;1.20;1.10;;;15.30;65.70;;;;;;4171696;28;20044;-46
2023/11/29 13:26:25;;;;;;;2.70;1.52;;;15.40;65.50;;;;;;4173787;28;20071;-50
2023/11/29 13:29:06;;;;;;;1.77;1.57;;;15.50;65.10;;;;;;4173369;28;20056;-45
2023/11/29 13:31:48;;;;;;;2.40;1.33;;;15.50;65.40;;;;;;4171589;28;20295;-46
2023/11/29 13:34:29;;;;;;;1.10;1.10;;;15.50;65.10;;;;;;4170964;28;20799;-46
2023/11/29 13:37:11;;;;;;;1.05;0.95;;;15.60;65.10;;;;;;4187808;28;20129;-44
2023/11/29 13:39:51;;;;;;;2.43;0.97;;;15.60;64.70;;;;;;4188431;28;20047;-47
2023/11/29 13:42:33;;;;;;;1.42;1.33;;;15.50;64.40;;;;;;4188108;28;20306;-49
2023/11/29 13:45:14;;;;;;;1.85;0.98;;;15.50;64.70;;;;;;4187708;28;20082;-45
2023/11/29 13:47:56;;;;;;;0.88;0.68;;;15.40;64.70;;;;;;4165392;28;20132;-45
2023/11/29 13:50:38;;;;;;;1.08;0.95;;;15.30;64.30;;;;;;4170627;28;20051;-46
2023/11/29 13:53:19;;;;;;;;;;;15.30;64.50;;;;;;4172151;28;20056;-44
2023/11/29 13:56:00;;;;;;;1.55;1.20;;;15.30;66.00;;;;;;4171050;28;20338;-45
2023/11/29 13:58:42;;;;;;;33.72;16.10;;;15.30;66.10;;;;;;4170598;28;20071;-50
2023/11/29 14:01:23;;;;;;;2.60;2.13;;;15.40;65.70;;;;;;4169966;28;20116;-46
2023/11/29 14:04:05;;;;;;;1.00;0.93;;;15.50;65.30;;;;;;4157305;28;20195;-46
2023/11/29 14:06:47;;;;;;;1.10;1.00;;;15.60;64.90;;;;;;4171874;28;20782;-49